Terminal Aerodrome Forecast
Issued by NWS El Paso, TX

Home | Current Version | Previous Version | Text Only | Print | Product List | Glossary On
Versions: 1 2 3 4 5 6 7 8 9 10 11 12
000
FTUS44 KEPZ 241120
TAFELP
TAF
KELP 241120Z 2412/2512 23010KT P6SM SCT250
     FM241700 24013G21KT P6SM SCT250
     FM241900 25024G35KT P6SM SKC
      TEMPO 2420/2424 2SM BLDU
     FM250700 25015G25KT P6SM SCT250=

USA.gov is the U.S. government's official web portal to all federal, state and local government web resources and services.